x

South Brooks (46132) Wave Buoy

6:00pm - Mon 23rd Jan 2017 All times are PST. -8 hours from GMT.

  • Sig Wave height 10.5ft
  • Peak Period 12s
  • Wind
    18mph, 25mph gusts
  • Sea Temp 48°f
  • 空気 Temp 48°f
  • Sea Pressure 1014.8mb
  • South Brooks
  • South Brooks

More Historic Weather Station data

Upgrade to MSW Pro to gain access to the past 30 days of data for over 8000 Wavebouys and Weather Stations around the globe.

Join Pro

Comparision Forecast

View Surf forecast
   
Mon 01/23 6:00pm 10.5ft 12s 18 25 mph 1014.8mb 48f 48f
5:00pm 10ft 14s 20 25 mph 1014.3mb 48f 48f
4:00pm 11ft 14s 16 22 mph 1013.8mb 48f 48f
3:00pm 10ft 13s 16 20 mph 1013.4mb 48f 48f
2:00pm 11ft 11s 9 13 mph 1012.7mb 48f 48f
1:00pm 11ft 11s 9 13 mph 1012.5mb 48f 47f
12:00pm 12ft 10s 9 13 mph 1012.2mb 48f 47f
11:00am 11.5ft 12s 7 13 mph 1012mb 48f 47f
10:00am 11.5ft 12s 7 11 mph 1011.3mb 47f 48f
9:00am 13.5ft 10s 2 4 mph 1010.3mb 47f 48f
8:00am 13ft 11s 4 7 mph 1009.3mb 47f 47f
7:00am 13.5ft 12s 4 9 mph 1008.2mb 47f 47f
6:00am 13ft 12s 2 4 mph 1007.3mb 47f 47f
5:00am 14ft 12s 4 7 mph 1006.7mb 47f 47f
4:00am 14ft 12s 4 9 mph 1005.9mb 47f 47f
3:00am 14ft 11s 4 11 mph 1005.3mb 47f 47f
2:00am 15ft 13s 7 11 mph 1004.3mb 47f 47f
1:00am 16ft 12s 9 13 mph 1003.1mb 47f 47f
12:00am 17ft 14s 16 22 mph 1002.1mb 47f 48f
Sun 01/22 11:00pm 17.5ft 14s 20 27 mph 1001.3mb 47f 48f
10:00pm 19.5ft 14s 27 36 mph 1000mb 47f 48f
9:00pm 19.5ft 14s 27 36 mph 999.1mb 47f 47f
8:00pm 21.5ft 14s 27 34 mph 998.6mb 47f 45f
7:00pm 21ft 13s 29 36 mph 997.4mb 47f 47f
6:00pm 22.5ft 12s 31 40 mph 996.7mb 47f 47f
5:00pm 21.5ft 12s 29 38 mph 995.8mb 47f 46f
4:00pm 15.5ft 9s 36 43 mph 994.7mb 47f 47f
3:00pm 15.5ft 8s 31 40 mph 994.2mb 47f 47f
2:00pm 15.5ft 8s 34 43 mph 993.6mb 47f 47f
1:00pm 15ft 9s 31 40 mph 993.1mb 47f 47f
12:00pm 14ft 8s 36 49 mph 992.7mb 47f 47f
11:00am 12.5ft 15s 31 40 mph 992.3mb 47f 48f
10:00am 12ft 14s 34 47 mph 991.8mb 48f 48f
9:00am 11ft 14s 22 34 mph 991.5mb 47f 50f
8:00am 12ft 15s 11 16 mph 990.4mb 47f 48f
7:00am 12.5ft 15s 9 13 mph 990.8mb 47f 47f
6:00am 13ft 15s 16 22 mph 991.3mb 47f 47f
5:00am  -   -  22
mph
992.2mb - 48f
4:00am 13.5ft 8s 27 36 mph 992.8mb 47f 48f
3:00am 15ft 14s 31 38 mph 993.9mb 47f 48f
2:00am 15ft 15s 34 43 mph 994mb 47f 47f
1:00am 15ft 14s 29 40 mph 994.8mb 47f 47f
12:00am 14ft 15s 29 36 mph 995.1mb 47f 47f
Sat 01/21 11:00pm 15.5ft 14s 25 31 mph 995.3mb 48f 47f
10:00pm 15ft 14s 22 29 mph 994.8mb 47f 48f
9:00pm 15ft 15s 29 36 mph 993.9mb 47f 48f
8:00pm 14ft 15s 25 31 mph 993.8mb 47f 48f
7:00pm 14.5ft 16s 25 31 mph 993.3mb 48f 48f
6:00pm 14ft 16s 22 31 mph 992.9mb 48f 47f
5:00pm 15ft 16s 25 31 mph 992.3mb 48f 47f
4:00pm 15ft 17s 22 34 mph 991.9mb 47f 47f
3:00pm 16.5ft 16s 27 36 mph 991.3mb 47f 47f
2:00pm 16ft 17s 27 34 mph 990.8mb 47f 47f
1:00pm 16ft 16s 27 34 mph 990.7mb 47f 47f
12:00pm 15ft 14s 29 36 mph 990.3mb 47f 47f
11:00am 17.5ft 16s 27 31 mph 990.1mb 47f 47f
10:00am 15.5ft 17s 27 36 mph 989.5mb 47f 47f
9:00am 15ft 15s 25 31 mph 988.9mb 47f 47f
8:00am 16ft 15s 22 29 mph 988.3mb 47f 47f
7:00am 15ft 17s 20 27 mph 988.1mb 47f 47f
6:00am 15ft 18s 22 31 mph 987.7mb 47f 47f
5:00am 14.5ft 18s 22 29 mph 987.4mb 47f 47f
4:00am 16ft 17s 18 25 mph 987.4mb 47f 47f
3:00am 14ft 17s 16 22 mph 987.5mb 47f 47f
2:00am 14ft 20s 11 16 mph 987.3mb 47f 48f
1:00am 14ft 20s 11 18 mph 987.2mb 47f 48f
12:00am 14ft 21s 13 20 mph 987mb 47f 47f
Fri 01/20 11:00pm 13ft 10s 13 20 mph 986.9mb 47f 48f
10:00pm 12ft 9s 9 13 mph 986.8mb 47f 48f
9:00pm 11ft 10s 11 16 mph 986.4mb 47f 48f
8:00pm 12ft 9s 9 13 mph 985.8mb 47f 48f
7:00pm 11ft 9s 11 16 mph 985.3mb 47f 49f
6:00pm 10.5ft 8s 13 20 mph 984.7mb 47f 49f
5:00pm 11ft 14s 9 13 mph 984.6mb 47f 49f
4:00pm 11.5ft 15s 7 11 mph 984.7mb 47f 49f
3:00pm 11ft 15s 9 11 mph 984.6mb 47f 48f
2:00pm 11ft 14s 9 11 mph 984.7mb 47f 48f
1:00pm 12ft 14s 9 13 mph 985mb 47f 48f
12:00pm 12.5ft 16s 9 16 mph 985.3mb 47f 47f
11:00am 12ft 14s 11 16 mph 985.8mb 47f 47f
10:00am 12.5ft 16s 13 18 mph 985.9mb 47f 47f
9:00am 13ft 16s 16 20 mph 985.9mb 47f 47f
8:00am 14ft 16s 18 25 mph 986.2mb 47f 48f
7:00am 14ft 14s 22 31 mph 986.2mb 47f 47f
6:00am 14.5ft 15s 25 34 mph 986.6mb 47f 47f
5:00am 15.5ft 15s 29 36 mph 986.9mb 47f 47f
4:00am 16.5ft 16s 29 36 mph 987.7mb 47f 46f